This is the latest recevied weather packets stored in our database for station/object PA3DZX-13. If no packets are shown the sender has not sent any weather packets the latest 1 day(s).
| Time | Temp. | Humidity | Pressure | Rain* | Wind** | Luminosity | Snow |
|---|---|---|---|---|---|---|---|
| 1777955955 | 7.78° C | 97% | 1011.5 hPa | 0.51 mm | 3.58 m/s, 33° | - | - |
| 1777955054 | 7.78° C | 97% | 1011.5 hPa | 1.52 mm | 4.92 m/s, 28° | - | - |
| 1777954154 | 7.78° C | 97% | 1011.5 hPa | 1.52 mm | 4.92 m/s, 28° | - | - |
| 1777953253 | 7.78° C | 98% | 1011.6 hPa | 1.52 mm | 3.58 m/s, 21° | - | - |
| 1777952352 | 7.78° C | 97% | 1011.8 hPa | 2.54 mm | 3.58 m/s, 24° | - | - |
| 1777951452 | 7.78° C | 98% | 1011.7 hPa | 2.03 mm | 3.58 m/s, 18° | - | - |
| 1777950552 | 8.89° C | 98% | 1011.6 hPa | 3.05 mm | 3.58 m/s, 10° | - | - |
| 1777949652 | 8.89° C | 97% | 1011.6 hPa | 2.79 mm | 4.92 m/s, 12° | - | - |
| 1777948751 | 10° C | 99% | 1011.7 hPa | 1.78 mm | 3.58 m/s, 358° | - | - |
| 1777947852 | 10° C | 99% | 1011.7 hPa | 1.52 mm | 3.58 m/s, 351° | - | - |
| 1777946951 | 10° C | 99% | 1011.7 hPa | 2.79 mm | 3.58 m/s, 2° | - | - |
| 1777946051 | 10.56° C | 99% | 1011.7 hPa | 2.79 mm | 2.68 m/s, 8° | - | - |
| 1777945150 | 10.56° C | 99% | 1011.8 hPa | 1.02 mm | 2.68 m/s, 14° | - | - |
| 1777944249 | 10.56° C | 99% | 1011.8 hPa | 1.02 mm | 2.68 m/s, 9° | - | - |
| 1777943349 | 10.56° C | 99% | 1011.9 hPa | 0.76 mm | 2.68 m/s, 15° | - | - |
| 1777942449 | 10.56° C | 99% | 1011.9 hPa | 0.51 mm | 2.68 m/s, 13° | - | - |
| 1777941549 | 10.56° C | 98% | 1012.1 hPa | 0.51 mm | 2.68 m/s, 9° | - | - |
| 1777940649 | 10.56° C | 98% | 1012.3 hPa | 0.25 mm | 2.68 m/s, 3° | - | - |
| 1777939748 | 10.56° C | 97% | 1012.3 hPa | 0.51 mm | 2.68 m/s, 0° | - | - |
| 1777938848 | 10.56° C | 97% | 1012.4 hPa | 1.02 mm | 2.68 m/s, 11° | - | - |
| 1777937947 | 11.67° C | 97% | 1012.5 hPa | 0.25 mm | 2.68 m/s, 9° | - | - |
| 1777937046 | 11.67° C | 98% | 1012.6 hPa | 0.25 mm | 1.79 m/s, 0° | - | - |
* Rain latest hour (hover to see other rain measurements)
** Current wind speed in m/s (hover to see current wind gust speed)